sensor_id;sensor_type;location;lat;lon;timestamp;pressure;altitude;pressure_sealevel;temperature;humidity
54172;BME280;40076;52.354;4.970;2023-02-13T00:02:14;103831.34;;;8.70;100.00
54172;BME280;40076;52.354;4.970;2023-02-13T00:04:40;103834.03;;;8.70;100.00
54172;BME280;40076;52.354;4.970;2023-02-13T00:07:07;103828.09;;;8.68;100.00
54172;BME280;40076;52.354;4.970;2023-02-13T00:09:33;103834.75;;;8.65;100.00
54172;BME280;40076;52.354;4.970;2023-02-13T00:11:58;103828.53;;;8.65;100.00
54172;BME280;40076;52.354;4.970;2023-02-13T00:14:24;103831.47;;;8.63;100.00
54172;BME280;40076;52.354;4.970;2023-02-13T00:16:49;103826.31;;;8.62;100.00
54172;BME280;40076;52.354;4.970;2023-02-13T00:19:15;103829.47;;;8.59;100.00
54172;BME280;40076;52.354;4.970;2023-02-13T00:21:43;103828.88;;;8.57;100.00
54172;BME280;40076;52.354;4.970;2023-02-13T00:24:08;103824.53;;;8.56;100.00
54172;BME280;40076;52.354;4.970;2023-02-13T00:26:34;103824.78;;;8.54;100.00
54172;BME280;40076;52.354;4.970;2023-02-13T00:28:59;103821.50;;;8.52;100.00
54172;BME280;40076;52.354;4.970;2023-02-13T00:31:24;103820.91;;;8.50;100.00
54172;BME280;40076;52.354;4.970;2023-02-13T00:33:50;103824.41;;;8.50;100.00
54172;BME280;40076;52.354;4.970;2023-02-13T00:36:24;103820.06;;;8.49;100.00
54172;BME280;40076;52.354;4.970;2023-02-13T00:38:50;103820.66;;;8.51;100.00
54172;BME280;40076;52.354;4.970;2023-02-13T00:41:18;103819.84;;;8.51;100.00
54172;BME280;40076;52.354;4.970;2023-02-13T00:43:44;103818.44;;;8.48;100.00
54172;BME280;40076;52.354;4.970;2023-02-13T00:46:10;103823.25;;;8.46;100.00
54172;BME280;40076;52.354;4.970;2023-02-13T00:48:39;103823.47;;;8.45;100.00
54172;BME280;40076;52.354;4.970;2023-02-13T00:51:05;103822.88;;;8.43;100.00
54172;BME280;40076;52.354;4.970;2023-02-13T00:53:34;103818.75;;;8.40;100.00
54172;BME280;40076;52.354;4.970;2023-02-13T00:56:00;103811.72;;;8.39;100.00
54172;BME280;40076;52.354;4.970;2023-02-13T00:58:26;103811.16;;;8.37;100.00
54172;BME280;40076;52.354;4.970;2023-02-13T01:00:52;103813.84;;;8.37;100.00
54172;BME280;40076;52.354;4.970;2023-02-13T01:03:19;103807.03;;;8.35;100.00
54172;BME280;40076;52.354;4.970;2023-02-13T01:05:45;103816.19;;;8.34;100.00
54172;BME280;40076;52.354;4.970;2023-02-13T01:08:11;103815.34;;;8.33;100.00
54172;BME280;40076;52.354;4.970;2023-02-13T01:10:38;103808.31;;;8.32;100.00
54172;BME280;40076;52.354;4.970;2023-02-13T01:13:04;103816.19;;;8.34;100.00
54172;BME280;40076;52.354;4.970;2023-02-13T01:15:29;103813.72;;;8.32;100.00
54172;BME280;40076;52.354;4.970;2023-02-13T01:17:54;103812.09;;;8.31;100.00
54172;BME280;40076;52.354;4.970;2023-02-13T01:20:22;103815.81;;;8.30;100.00
54172;BME280;40076;52.354;4.970;2023-02-13T01:22:50;103812.50;;;8.28;100.00
54172;BME280;40076;52.354;4.970;2023-02-13T01:25:15;103816.25;;;8.27;100.00
54172;BME280;40076;52.354;4.970;2023-02-13T01:27:41;103818.94;;;8.27;100.00
54172;BME280;40076;52.354;4.970;2023-02-13T01:30:07;103810.88;;;8.27;100.00
54172;BME280;40076;52.354;4.970;2023-02-13T01:32:38;103810.25;;;8.25;100.00
54172;BME280;40076;52.354;4.970;2023-02-13T01:35:03;103814.59;;;8.26;100.00
54172;BME280;40076;52.354;4.970;2023-02-13T01:37:29;103812.72;;;8.27;100.00
54172;BME280;40076;52.354;4.970;2023-02-13T01:39:54;103810.88;;;8.27;100.00
54172;BME280;40076;52.354;4.970;2023-02-13T01:42:25;103813.56;;;8.27;100.00
54172;BME280;40076;52.354;4.970;2023-02-13T01:44:58;103814.16;;;8.29;100.00
54172;BME280;40076;52.354;4.970;2023-02-13T01:50:12;103814.78;;;8.31;100.00
54172;BME280;40076;52.354;4.970;2023-02-13T01:52:43;103806.41;;;8.21;100.00
54172;BME280;40076;52.354;4.970;2023-02-13T01:55:11;103807.22;;;8.22;100.00
54172;BME280;40076;52.354;4.970;2023-02-13T01:57:38;103805.34;;;8.22;100.00
54172;BME280;40076;52.354;4.970;2023-02-13T02:00:15;103809.44;;;8.25;100.00
54172;BME280;40076;52.354;4.970;2023-02-13T02:02:49;103803.00;;;8.26;100.00
54172;BME280;40076;52.354;4.970;2023-02-13T02:05:17;103797.84;;;8.24;100.00
54172;BME280;40076;52.354;4.970;2023-02-13T02:07:44;103800.53;;;8.24;100.00
54172;BME280;40076;52.354;4.970;2023-02-13T02:10:13;103803.50;;;8.23;100.00
54172;BME280;40076;52.354;4.970;2023-02-13T02:12:48;103802.66;;;8.22;100.00
54172;BME280;40076;52.354;4.970;2023-02-13T02:15:16;103805.34;;;8.22;100.00
54172;BME280;40076;52.354;4.970;2023-02-13T02:17:41;103805.56;;;8.21;100.00
54172;BME280;40076;52.354;4.970;2023-02-13T02:20:29;103803.13;;;8.19;100.00
54172;BME280;40076;52.354;4.970;2023-02-13T02:37:02;103795.50;;;8.16;100.00
54172;BME280;40076;52.354;4.970;2023-02-13T02:43:00;103784.75;;;8.16;100.00
54172;BME280;40076;52.354;4.970;2023-02-13T02:45:27;103779.34;;;8.16;100.00
54172;BME280;40076;52.354;4.970;2023-02-13T02:51:29;103780.41;;;8.15;100.00
54172;BME280;40076;52.354;4.970;2023-02-13T02:54:06;103781.22;;;8.16;100.00
54172;BME280;40076;52.354;4.970;2023-02-13T02:56:57;103786.69;;;8.09;100.00
54172;BME280;40076;52.354;4.970;2023-02-13T02:59:26;103785.06;;;8.08;100.00
54172;BME280;40076;52.354;4.970;2023-02-13T03:02:12;103795.00;;;8.07;100.00
54172;BME280;40076;52.354;4.970;2023-02-13T03:04:58;103793.13;;;8.08;100.00
54172;BME280;40076;52.354;4.970;2023-02-13T03:07:44;103792.06;;;8.09;100.00
54172;BME280;40076;52.354;4.970;2023-02-13T03:10:13;103782.13;;;8.09;100.00
54172;BME280;40076;52.354;4.970;2023-02-13T03:13:17;103787.28;;;8.11;100.00
54172;BME280;40076;52.354;4.970;2023-02-13T03:15:56;103776.50;;;8.11;100.00
54172;BME280;40076;52.354;4.970;2023-02-13T03:18:44;103784.81;;;8.09;100.00
54172;BME280;40076;52.354;4.970;2023-02-13T03:24:43;103771.59;;;8.08;100.00
54172;BME280;40076;52.354;4.970;2023-02-13T03:30:33;103771.59;;;8.08;100.00
54172;BME280;40076;52.354;4.970;2023-02-13T03:33:17;103768.31;;;8.06;100.00
54172;BME280;40076;52.354;4.970;2023-02-13T03:39:01;103771.00;;;8.06;100.00
54172;BME280;40076;52.354;4.970;2023-02-13T03:41:36;103772.66;;;8.07;100.00
54172;BME280;40076;52.354;4.970;2023-02-13T03:44:13;103775.91;;;8.09;100.00
54172;BME280;40076;52.354;4.970;2023-02-13T03:46:42;103781.28;;;8.09;100.00
54172;BME280;40076;52.354;4.970;2023-02-13T03:49:15;103770.53;;;8.09;100.00
54172;BME280;40076;52.354;4.970;2023-02-13T03:52:27;103771.59;;;8.08;100.00
54172;BME280;40076;52.354;4.970;2023-02-13T03:54:55;103762.91;;;8.06;100.00
54172;BME280;40076;52.354;4.970;2023-02-13T03:57:43;103768.31;;;8.06;100.00
54172;BME280;40076;52.354;4.970;2023-02-13T04:00:33;103769.34;;;8.05;100.00
54172;BME280;40076;52.354;4.970;2023-02-13T04:03:30;103776.38;;;8.06;100.00
54172;BME280;40076;52.354;4.970;2023-02-13T04:06:04;103779.31;;;8.04;100.00
54172;BME280;40076;52.354;4.970;2023-02-13T04:08:30;103768.53;;;8.04;100.00
54172;BME280;40076;52.354;4.970;2023-02-13T04:14:18;103776.25;;;8.01;100.00
54172;BME280;40076;52.354;4.970;2023-02-13T04:16:52;103771.94;;;8.00;100.00
54172;BME280;40076;52.354;4.970;2023-02-13T04:19:20;103758.22;;;8.01;100.00
54172;BME280;40076;52.354;4.970;2023-02-13T04:21:55;103767.34;;;8.00;100.00
54172;BME280;40076;52.354;4.970;2023-02-13T04:24:21;103759.84;;;8.02;100.00
54172;BME280;40076;52.354;4.970;2023-02-13T04:26:46;103752.03;;;8.01;100.00
54172;BME280;40076;52.354;4.970;2023-02-13T04:29:11;103757.97;;;8.03;100.00
54172;BME280;40076;52.354;4.970;2023-02-13T04:31:37;103750.94;;;8.02;100.00
54172;BME280;40076;52.354;4.970;2023-02-13T04:34:03;103755.28;;;8.03;100.00
54172;BME280;40076;52.354;4.970;2023-02-13T04:36:28;103751.78;;;8.02;100.00
54172;BME280;40076;52.354;4.970;2023-02-13T04:38:54;103753.63;;;8.02;100.00
54172;BME280;40076;52.354;4.970;2023-02-13T04:41:19;103752.81;;;8.01;100.00
54172;BME280;40076;52.354;4.970;2023-02-13T04:43:45;103761.97;;;8.00;100.00
54172;BME280;40076;52.354;4.970;2023-02-13T04:46:10;103750.38;;;8.00;100.00
54172;BME280;40076;52.354;4.970;2023-02-13T04:48:35;103758.47;;;8.00;100.00
54172;BME280;40076;52.354;4.970;2023-02-13T04:51:00;103753.91;;;8.00;100.00
54172;BME280;40076;52.354;4.970;2023-02-13T04:53:26;103747.69;;;8.00;100.00
54172;BME280;40076;52.354;4.970;2023-02-13T04:55:51;103743.94;;;8.01;100.00
54172;BME280;40076;52.354;4.970;2023-02-13T04:58:17;103750.94;;;8.02;100.00
54172;BME280;40076;52.354;4.970;2023-02-13T05:00:42;103744.75;;;8.01;100.00
54172;BME280;40076;52.354;4.970;2023-02-13T05:03:10;103742.03;;;8.01;100.00
54172;BME280;40076;52.354;4.970;2023-02-13T05:05:37;103746.66;;;8.01;100.00
54172;BME280;40076;52.354;4.970;2023-02-13T05:08:03;103744.16;;;7.99;100.00
54172;BME280;40076;52.354;4.970;2023-02-13T05:10:30;103740.66;;;7.99;100.00
54172;BME280;40076;52.354;4.970;2023-02-13T05:12:55;103740.66;;;7.99;100.00
54172;BME280;40076;52.354;4.970;2023-02-13T05:15:20;103738.78;;;7.99;100.00
54172;BME280;40076;52.354;4.970;2023-02-13T05:17:48;103745.22;;;7.98;100.00
54172;BME280;40076;52.354;4.970;2023-02-13T05:20:17;103746.03;;;7.99;100.00
54172;BME280;40076;52.354;4.970;2023-02-13T05:22:44;103744.41;;;7.98;100.00
54172;BME280;40076;52.354;4.970;2023-02-13T05:25:42;103739.84;;;7.98;100.00
54172;BME280;40076;52.354;4.970;2023-02-13T05:28:10;103746.03;;;7.99;100.00
54172;BME280;40076;52.354;4.970;2023-02-13T05:30:54;103742.31;;;8.00;100.00
54172;BME280;40076;52.354;4.970;2023-02-13T05:33:19;103739.84;;;7.98;100.00
54172;BME280;40076;52.354;4.970;2023-02-13T05:35:44;103739.84;;;7.98;100.00
54172;BME280;40076;52.354;4.970;2023-02-13T05:38:10;103746.03;;;7.99;100.00
54172;BME280;40076;52.354;4.970;2023-02-13T05:40:35;103742.53;;;7.98;100.00
54172;BME280;40076;52.354;4.970;2023-02-13T05:43:00;103743.34;;;7.99;100.00
54172;BME280;40076;52.354;4.970;2023-02-13T05:45:26;103737.13;;;7.98;100.00
54172;BME280;40076;52.354;4.970;2023-02-13T05:47:51;103737.97;;;7.99;100.00
54172;BME280;40076;52.354;4.970;2023-02-13T05:50:16;103747.91;;;7.98;100.00
54172;BME280;40076;52.354;4.970;2023-02-13T05:52:42;103744.41;;;7.98;100.00
54172;BME280;40076;52.354;4.970;2023-02-13T05:55:07;103737.38;;;7.97;100.00
54172;BME280;40076;52.354;4.970;2023-02-13T05:57:32;103731.97;;;7.97;100.00
54172;BME280;40076;52.354;4.970;2023-02-13T05:59:58;103736.53;;;7.96;100.00
54172;BME280;40076;52.354;4.970;2023-02-13T06:02:23;103741.09;;;7.96;100.00
54172;BME280;40076;52.354;4.970;2023-02-13T06:04:51;103742.16;;;7.95;100.00
54172;BME280;40076;52.354;4.970;2023-02-13T06:07:16;103738.63;;;7.94;100.00
54172;BME280;40076;52.354;4.970;2023-02-13T06:09:42;103743.78;;;7.96;100.00
54172;BME280;40076;52.354;4.970;2023-02-13T06:12:07;103742.97;;;7.95;100.00
54172;BME280;40076;52.354;4.970;2023-02-13T06:14:32;103750.00;;;7.96;100.00
54172;BME280;40076;52.354;4.970;2023-02-13T06:16:59;103740.06;;;7.97;100.00
54172;BME280;40076;52.354;4.970;2023-02-13T06:19:25;103734.69;;;7.97;100.00
54172;BME280;40076;52.354;4.970;2023-02-13T06:21:50;103734.69;;;7.97;100.00
54172;BME280;40076;52.354;4.970;2023-02-13T06:24:15;103733.84;;;7.96;100.00
54172;BME280;40076;52.354;4.970;2023-02-13T06:26:41;103734.69;;;7.97;100.00
54172;BME280;40076;52.354;4.970;2023-02-13T06:29:06;103744.41;;;7.98;100.00
54172;BME280;40076;52.354;4.970;2023-02-13T06:31:33;103750.59;;;7.98;100.00
54172;BME280;40076;52.354;4.970;2023-02-13T06:33:59;103741.72;;;7.98;100.00
54172;BME280;40076;52.354;4.970;2023-02-13T06:36:24;103746.28;;;7.97;100.00
54172;BME280;40076;52.354;4.970;2023-02-13T06:38:49;103745.22;;;7.98;100.00
54172;BME280;40076;52.354;4.970;2023-02-13T06:41:15;103748.72;;;7.99;100.00
54172;BME280;40076;52.354;4.970;2023-02-13T06:43:40;103745.22;;;7.98;100.00
54172;BME280;40076;52.354;4.970;2023-02-13T06:46:06;103751.44;;;7.99;100.00
54172;BME280;40076;52.354;4.970;2023-02-13T06:48:32;103747.91;;;7.98;100.00
54172;BME280;40076;52.354;4.970;2023-02-13T06:50:58;103750.38;;;8.00;100.00
54172;BME280;40076;52.354;4.970;2023-02-13T06:53:26;103748.72;;;7.99;100.00
54172;BME280;40076;52.354;4.970;2023-02-13T06:55:52;103754.13;;;7.99;100.00
54172;BME280;40076;52.354;4.970;2023-02-13T06:58:22;103749.78;;;7.98;100.00
54172;BME280;40076;52.354;4.970;2023-02-13T07:00:51;103751.44;;;7.99;100.00
54172;BME280;40076;52.354;4.970;2023-02-13T07:03:16;103753.31;;;7.98;100.00
54172;BME280;40076;52.354;4.970;2023-02-13T07:05:43;103752.47;;;7.98;100.00
54172;BME280;40076;52.354;4.970;2023-02-13T07:08:10;103756.00;;;7.98;100.00
54172;BME280;40076;52.354;4.970;2023-02-13T07:10:39;103744.41;;;7.98;100.00
54172;BME280;40076;52.354;4.970;2023-02-13T07:13:05;103747.09;;;7.98;100.00
54172;BME280;40076;52.354;4.970;2023-02-13T07:15:35;103758.69;;;7.98;100.00
54172;BME280;40076;52.354;4.970;2023-02-13T07:18:00;103759.50;;;7.99;100.00
54172;BME280;40076;52.354;4.970;2023-02-13T07:20:27;103761.97;;;8.00;100.00
54172;BME280;40076;52.354;4.970;2023-02-13T07:22:52;103767.34;;;8.00;100.00
54172;BME280;40076;52.354;4.970;2023-02-13T07:25:21;103769.22;;;8.00;100.00
54172;BME280;40076;52.354;4.970;2023-02-13T07:27:46;103774.63;;;8.00;100.00
54172;BME280;40076;52.354;4.970;2023-02-13T07:30:12;103773.56;;;8.01;100.00
54172;BME280;40076;52.354;4.970;2023-02-13T07:32:38;103772.50;;;8.02;100.00
54172;BME280;40076;52.354;4.970;2023-02-13T07:35:04;103771.66;;;8.01;100.00
54172;BME280;40076;52.354;4.970;2023-02-13T07:37:30;103770.88;;;8.01;100.00
54172;BME280;40076;52.354;4.970;2023-02-13T07:39:56;103763.59;;;8.01;100.00
54172;BME280;40076;52.354;4.970;2023-02-13T07:42:21;103773.56;;;8.01;100.00
54172;BME280;40076;52.354;4.970;2023-02-13T07:44:47;103768.97;;;8.01;100.00
54172;BME280;40076;52.354;4.970;2023-02-13T07:47:12;103778.97;;;8.01;100.00
54172;BME280;40076;52.354;4.970;2023-02-13T07:49:38;103778.13;;;8.00;100.00
54172;BME280;40076;52.354;4.970;2023-02-13T07:52:04;103773.56;;;8.01;100.00
54172;BME280;40076;52.354;4.970;2023-02-13T07:54:53;103774.38;;;8.01;100.00
54172;BME280;40076;52.354;4.970;2023-02-13T07:57:21;103777.88;;;8.02;100.00
54172;BME280;40076;52.354;4.970;2023-02-13T07:59:55;103782.69;;;8.00;100.00
54172;BME280;40076;52.354;4.970;2023-02-13T08:02:23;103792.41;;;8.01;100.00
54172;BME280;40076;52.354;4.970;2023-02-13T08:04:51;103788.91;;;8.00;100.00
54172;BME280;40076;52.354;4.970;2023-02-13T08:07:16;103789.72;;;8.01;100.00
54172;BME280;40076;52.354;4.970;2023-02-13T08:09:45;103794.84;;;8.02;100.00
54172;BME280;40076;52.354;4.970;2023-02-13T08:12:30;103800.25;;;8.02;100.00
54172;BME280;40076;52.354;4.970;2023-02-13T08:14:57;103803.75;;;8.03;100.00
54172;BME280;40076;52.354;4.970;2023-02-13T08:17:22;103802.94;;;8.02;100.00
54172;BME280;40076;52.354;4.970;2023-02-13T08:19:51;103805.63;;;8.02;100.00
54172;BME280;40076;52.354;4.970;2023-02-13T08:22:16;103805.63;;;8.02;100.00
54172;BME280;40076;52.354;4.970;2023-02-13T08:24:42;103801.06;;;8.03;100.00
54172;BME280;40076;52.354;4.970;2023-02-13T08:27:14;103796.50;;;8.03;100.00
54172;BME280;40076;52.354;4.970;2023-02-13T08:29:42;103797.09;;;8.05;100.00
54172;BME280;40076;52.354;4.970;2023-02-13T08:32:07;103797.94;;;8.06;100.00
54172;BME280;40076;52.354;4.970;2023-02-13T08:34:33;103796.88;;;8.07;100.00
54172;BME280;40076;52.354;4.970;2023-02-13T08:37:01;103788.81;;;8.07;100.00
54172;BME280;40076;52.354;4.970;2023-02-13T08:39:29;103796.06;;;8.06;100.00
54172;BME280;40076;52.354;4.970;2023-02-13T08:41:55;103792.53;;;8.06;100.00
54172;BME280;40076;52.354;4.970;2023-02-13T08:44:20;103788.81;;;8.07;100.00
54172;BME280;40076;52.354;4.970;2023-02-13T08:46:46;103799.56;;;8.07;100.00
54172;BME280;40076;52.354;4.970;2023-02-13T08:49:11;103793.13;;;8.08;100.00
54172;BME280;40076;52.354;4.970;2023-02-13T08:51:37;103798.28;;;8.09;100.00
54172;BME280;40076;52.354;4.970;2023-02-13T08:54:02;103796.19;;;8.11;100.00
54172;BME280;40076;52.354;4.970;2023-02-13T08:56:27;103787.88;;;8.13;100.00
54172;BME280;40076;52.354;4.970;2023-02-13T08:58:53;103793.03;;;8.14;100.00
54172;BME280;40076;52.354;4.970;2023-02-13T09:01:25;103794.69;;;8.16;100.00
54172;BME280;40076;52.354;4.970;2023-02-13T09:03:51;103796.06;;;8.18;100.00
54172;BME280;40076;52.354;4.970;2023-02-13T09:06:16;103790.69;;;8.18;100.00
54172;BME280;40076;52.354;4.970;2023-02-13T09:08:42;103789.03;;;8.17;100.00
54172;BME280;40076;52.354;4.970;2023-02-13T09:11:08;103778.88;;;8.19;100.00
54172;BME280;40076;52.354;4.970;2023-02-13T09:13:35;103787.78;;;8.20;100.00
54172;BME280;40076;52.354;4.970;2023-02-13T09:16:03;103786.50;;;8.22;100.00
54172;BME280;40076;52.354;4.970;2023-02-13T09:18:29;103790.03;;;8.23;100.00
54172;BME280;40076;52.354;4.970;2023-02-13T09:21:03;103790.84;;;8.23;100.00
54172;BME280;40076;52.354;4.970;2023-02-13T09:23:34;103793.28;;;8.25;100.00
54172;BME280;40076;52.354;4.970;2023-02-13T09:26:04;103790.34;;;8.26;100.00
54172;BME280;40076;52.354;4.970;2023-02-13T09:28:37;103798.81;;;8.30;100.00
54172;BME280;40076;52.354;4.970;2023-02-13T09:31:10;103798.63;;;8.31;100.00
54172;BME280;40076;52.354;4.970;2023-02-13T09:33:36;103795.66;;;8.33;100.00
54172;BME280;40076;52.354;4.970;2023-02-13T09:36:08;103784.91;;;8.33;100.00
54172;BME280;40076;52.354;4.970;2023-02-13T09:38:34;103793.56;;;8.35;100.00
54172;BME280;40076;52.354;4.970;2023-02-13T09:41:14;103794.19;;;8.37;100.00
54172;BME280;40076;52.354;4.970;2023-02-13T09:44:00;103795.56;;;8.39;100.00
54172;BME280;40076;52.354;4.970;2023-02-13T09:46:35;103787.25;;;8.41;100.00
54172;BME280;40076;52.354;4.970;2023-02-13T09:49:07;103782.47;;;8.43;100.00
54172;BME280;40076;52.354;4.970;2023-02-13T09:51:37;103785.53;;;8.46;100.00
54172;BME280;40076;52.354;4.970;2023-02-13T09:54:05;103785.88;;;8.50;100.00
54172;BME280;40076;52.354;4.970;2023-02-13T10:02:40;103787.75;;;8.61;100.00
54172;BME280;40076;52.354;4.970;2023-02-13T10:05:27;103787.28;;;8.64;100.00
54172;BME280;40076;52.354;4.970;2023-02-13T10:08:05;103786.00;;;8.67;100.00
54172;BME280;40076;52.354;4.970;2023-02-13T10:10:35;103778.50;;;8.69;100.00
54172;BME280;40076;52.354;4.970;2023-02-13T10:13:35;103788.34;;;8.75;100.00
54172;BME280;40076;52.354;4.970;2023-02-13T10:19:00;103784.72;;;8.81;100.00
54172;BME280;40076;52.354;4.970;2023-02-13T10:21:31;103781.78;;;8.82;100.00
54172;BME280;40076;52.354;4.970;2023-02-13T10:24:38;103780.97;;;8.82;100.00
54172;BME280;40076;52.354;4.970;2023-02-13T10:27:37;103778.84;;;8.84;100.00
54172;BME280;40076;52.354;4.970;2023-02-13T10:30:21;103778.84;;;8.84;100.00
54172;BME280;40076;52.354;4.970;2023-02-13T10:33:03;103774.16;;;8.79;100.00
54172;BME280;40076;52.354;4.970;2023-02-13T10:38:40;103776.72;;;8.86;100.00
54172;BME280;40076;52.354;4.970;2023-02-13T10:41:23;103778.13;;;8.88;100.00
54172;BME280;40076;52.354;4.970;2023-02-13T10:44:01;103773.66;;;8.94;100.00
54172;BME280;40076;52.354;4.970;2023-02-13T11:00:57;103764.50;;;9.18;100.00
54172;BME280;40076;52.354;4.970;2023-02-13T11:03:25;103760.75;;;9.19;100.00
54172;BME280;40076;52.354;4.970;2023-02-13T11:05:52;103757.81;;;9.21;100.00
54172;BME280;40076;52.354;4.970;2023-02-13T11:08:32;103746.78;;;9.22;100.00
54172;BME280;40076;52.354;4.970;2023-02-13T11:10:59;103751.91;;;9.24;100.00
54172;BME280;40076;52.354;4.970;2023-02-13T11:13:27;103753.09;;;9.28;100.00
54172;BME280;40076;52.354;4.970;2023-02-13T11:16:07;103749.91;;;9.31;100.00
54172;BME280;40076;52.354;4.970;2023-02-13T11:18:39;103752.38;;;9.33;100.00
54172;BME280;40076;52.354;4.970;2023-02-13T11:21:10;103750.84;;;9.37;100.00
54172;BME280;40076;52.354;4.970;2023-02-13T11:23:43;103738.72;;;9.39;100.00
54172;BME280;40076;52.354;4.970;2023-02-13T11:26:13;103738.03;;;9.44;100.00
54172;BME280;40076;52.354;4.970;2023-02-13T11:29:15;103740.00;;;9.48;100.00
54172;BME280;40076;52.354;4.970;2023-02-13T11:31:43;103730.59;;;9.51;100.00
54172;BME280;40076;52.354;4.970;2023-02-13T11:34:23;103734.22;;;9.56;100.00
54172;BME280;40076;52.354;4.970;2023-02-13T11:36:54;103723.19;;;9.58;100.00
54172;BME280;40076;52.354;4.970;2023-02-13T11:39:31;103715.16;;;9.63;100.00
54172;BME280;40076;52.354;4.970;2023-02-13T11:41:58;103713.88;;;9.65;100.00
54172;BME280;40076;52.354;4.970;2023-02-13T11:44:26;103716.91;;;9.69;100.00
54172;BME280;40076;52.354;4.970;2023-02-13T11:46:54;103706.69;;;9.71;100.00
54172;BME280;40076;52.354;4.970;2023-02-13T11:49:21;103708.91;;;9.74;100.00
54172;BME280;40076;52.354;4.970;2023-02-13T11:51:52;103712.75;;;9.78;100.00
54172;BME280;40076;52.354;4.970;2023-02-13T11:56:58;103701.53;;;9.86;100.00
54172;BME280;40076;52.354;4.970;2023-02-13T11:59:30;103702.44;;;9.92;100.00
54172;BME280;40076;52.354;4.970;2023-02-13T12:04:47;103700.44;;;9.99;100.00
54172;BME280;40076;52.354;4.970;2023-02-13T12:07:39;103694.75;;;10.00;100.00
54172;BME280;40076;52.354;4.970;2023-02-13T12:12:50;103683.00;;;10.06;100.00
54172;BME280;40076;52.354;4.970;2023-02-13T12:15:24;103679.53;;;10.11;100.00
54172;BME280;40076;52.354;4.970;2023-02-13T12:18:05;103684.19;;;10.16;100.00
54172;BME280;40076;52.354;4.970;2023-02-13T12:28:34;103676.88;;;10.28;100.00
54172;BME280;40076;52.354;4.970;2023-02-13T12:39:33;103665.69;;;10.41;100.00
54172;BME280;40076;52.354;4.970;2023-02-13T12:45:12;103663.63;;;10.48;100.00
54172;BME280;40076;52.354;4.970;2023-02-13T12:56:37;103666.25;;;10.60;100.00
54172;BME280;40076;52.354;4.970;2023-02-13T13:02:59;103659.25;;;10.64;100.00
54172;BME280;40076;52.354;4.970;2023-02-13T13:08:56;103649.59;;;10.68;100.00
54172;BME280;40076;52.354;4.970;2023-02-13T13:11:44;103639.31;;;10.70;100.00
54172;BME280;40076;52.354;4.970;2023-02-13T13:14:35;103642.94;;;10.75;100.00
54172;BME280;40076;52.354;4.970;2023-02-13T13:20:38;103632.16;;;10.80;100.00
54172;BME280;40076;52.354;4.970;2023-02-13T13:26:10;103627.63;;;10.86;100.00
54172;BME280;40076;52.354;4.970;2023-02-13T13:28:57;103627.94;;;10.90;100.00
54172;BME280;40076;52.354;4.970;2023-02-13T13:31:25;103624.41;;;10.89;100.00
54172;BME280;40076;52.354;4.970;2023-02-13T13:33:57;103612.53;;;10.90;100.00
54172;BME280;40076;52.354;4.970;2023-02-13T13:36:35;103617.19;;;10.95;100.00
54172;BME280;40076;52.354;4.970;2023-02-13T13:39:35;103613.97;;;10.98;100.00
54172;BME280;40076;52.354;4.970;2023-02-13T13:42:21;103613.69;;;10.99;100.00
54172;BME280;40076;52.354;4.970;2023-02-13T13:47:30;103597.78;;;11.03;100.00
54172;BME280;40076;52.354;4.970;2023-02-13T13:50:24;103595.66;;;11.05;100.00
54172;BME280;40076;52.354;4.970;2023-02-13T13:53:07;103590.78;;;11.07;100.00
54172;BME280;40076;52.354;4.970;2023-02-13T14:03:59;103585.97;;;11.14;100.00
54172;BME280;40076;52.354;4.970;2023-02-13T14:09:41;103584.41;;;11.18;100.00
54172;BME280;40076;52.354;4.970;2023-02-13T14:14:52;103575.22;;;11.19;100.00
54172;BME280;40076;52.354;4.970;2023-02-13T14:17:50;103575.50;;;11.22;100.00
54172;BME280;40076;52.354;4.970;2023-02-13T14:26:17;103575.84;;;11.26;100.00
54172;BME280;40076;52.354;4.970;2023-02-13T14:31:32;103575.84;;;11.26;100.00
54172;BME280;40076;52.354;4.970;2023-02-13T14:34:03;103584.53;;;11.28;100.00
54172;BME280;40076;52.354;4.970;2023-02-13T14:36:41;103580.72;;;11.29;100.00
54172;BME280;40076;52.354;4.970;2023-02-13T14:42:25;103584.00;;;11.31;100.00
54172;BME280;40076;52.354;4.970;2023-02-13T14:44:55;103578.81;;;11.30;100.00
54172;BME280;40076;52.354;4.970;2023-02-13T14:47:43;103569.63;;;11.31;100.00
54172;BME280;40076;52.354;4.970;2023-02-13T14:50:48;103569.94;;;11.34;100.00
54172;BME280;40076;52.354;4.970;2023-02-13T14:53:25;103576.19;;;11.35;100.00
54172;BME280;40076;52.354;4.970;2023-02-13T14:56:23;103578.34;;;11.38;100.00
54172;BME280;40076;52.354;4.970;2023-02-13T14:59:10;103570.22;;;11.38;100.00
54172;BME280;40076;52.354;4.970;2023-02-13T15:01:51;103571.88;;;11.39;100.00
54172;BME280;40076;52.354;4.970;2023-02-13T15:04:31;103565.38;;;11.40;100.00
54172;BME280;40076;52.354;4.970;2023-02-13T15:07:12;103558.09;;;11.40;100.00
54172;BME280;40076;52.354;4.970;2023-02-13T15:09:40;103563.25;;;11.42;100.00
54172;BME280;40076;52.354;4.970;2023-02-13T15:12:29;103561.09;;;11.44;100.00
54172;BME280;40076;52.354;4.970;2023-02-13T15:14:55;103555.41;;;11.45;100.00
54172;BME280;40076;52.354;4.970;2023-02-13T15:17:27;103555.69;;;11.44;100.00
54172;BME280;40076;52.354;4.970;2023-02-13T15:20:25;103556.78;;;11.48;100.00
54172;BME280;40076;52.354;4.970;2023-02-13T15:23:06;103547.03;;;11.47;100.00
54172;BME280;40076;52.354;4.970;2023-02-13T15:25:39;103555.97;;;11.47;100.00
54172;BME280;40076;52.354;4.970;2023-02-13T15:28:18;103552.19;;;11.48;100.00
54172;BME280;40076;52.354;4.970;2023-02-13T15:31:05;103550.56;;;11.47;100.00
54172;BME280;40076;52.354;4.970;2023-02-13T15:33:40;103550.56;;;11.47;100.00